Time;durP1;ratioP1;P1;durP2;ratioP2;P2;SDS_P1;SDS_P2;PMS_P1;PMS_P2;Temp;Humidity;BMP_temperature;BMP_pressure;BME280_temperature;BME280_humidity;BME280_pressure;Samples;Min_cycle;Max_cycle;Signal;HPM_P1;HPM_P2
2023/04/09 00:01:08;;;;;;;20.23;15.15;;;3.80;99.90;;;;;;5050965;28;20033;-50
2023/04/09 00:03:35;;;;;;;20.20;14.00;;;3.80;99.90;;;;;;5050468;28;20032;-50
2023/04/09 00:06:00;;;;;;;19.90;14.25;;;3.80;99.90;;;;;;5050018;28;20063;-50
2023/04/09 00:08:26;;;;;;;19.35;14.45;;;3.70;99.90;;;;;;5050329;28;20029;-50
2023/04/09 00:10:53;;;;;;;23.50;16.77;;;3.70;99.90;;;;;;5051224;28;20068;-53
2023/04/09 00:13:19;;;;;;;23.10;15.70;;;3.70;99.90;;;;;;5049814;28;20041;-53
2023/04/09 00:15:45;;;;;;;23.30;15.75;;;3.70;99.90;;;;;;5051387;28;20071;-51
2023/04/09 00:18:23;;;;;;;19.13;14.45;;;3.80;99.90;;;;;;5051117;28;20427;-54
2023/04/09 00:20:49;;;;;;;23.45;16.00;;;3.80;99.90;;;;;;5051172;28;20583;-56
2023/04/09 00:23:15;;;;;;;23.45;15.15;;;3.80;99.90;;;;;;5051269;28;20036;-51
2023/04/09 00:25:40;;;;;;;18.67;13.63;;;3.90;99.90;;;;;;5050213;28;20025;-54
2023/04/09 00:28:06;;;;;;;23.27;14.75;;;3.80;99.90;;;;;;5055221;28;20027;-54
2023/04/09 00:30:31;;;;;;;17.83;13.55;;;3.80;99.90;;;;;;5055057;28;20108;-53
2023/04/09 00:32:57;;;;;;;18.40;13.60;;;3.80;99.90;;;;;;5054928;28;20027;-51
2023/04/09 00:35:23;;;;;;;21.83;15.50;;;3.80;99.90;;;;;;5054914;28;20029;-53
2023/04/09 00:37:49;;;;;;;18.65;14.90;;;3.80;99.90;;;;;;5054964;28;20071;-48
2023/04/09 00:40:15;;;;;;;21.83;15.10;;;3.70;99.90;;;;;;5054787;28;20123;-54
2023/04/09 00:42:40;;;;;;;19.75;14.23;;;3.70;99.90;;;;;;5053561;28;20112;-56
2023/04/09 00:45:07;;;;;;;18.95;13.85;;;3.70;99.90;;;;;;5054783;28;20025;-51
2023/04/09 00:47:34;;;;;;;17.05;13.32;;;3.80;99.90;;;;;;5054755;28;20016;-55
2023/04/09 00:50:00;;;;;;;18.75;13.50;;;3.80;99.90;;;;;;5054439;28;20031;-54
2023/04/09 00:52:26;;;;;;;16.75;12.65;;;3.80;99.90;;;;;;5054654;28;20427;-52
2023/04/09 00:54:53;;;;;;;21.55;15.60;;;3.70;99.90;;;;;;5054773;28;20028;-55
2023/04/09 00:57:19;;;;;;;19.35;13.65;;;3.60;99.90;;;;;;5054487;28;20025;-55
2023/04/09 00:59:45;;;;;;;17.10;13.02;;;3.60;99.90;;;;;;5054524;28;20033;-53
2023/04/09 01:02:11;;;;;;;19.80;13.95;;;3.60;99.90;;;;;;5054316;28;20047;-51
2023/04/09 01:04:39;;;;;;;21.23;14.75;;;3.60;99.90;;;;;;5054354;28;20029;-52
2023/04/09 01:07:10;;;;;;;19.45;14.70;;;3.60;99.90;;;;;;5054436;28;20531;-51
2023/04/09 01:09:41;;;;;;;23.23;14.63;;;3.60;99.90;;;;;;5054271;28;20074;-54
2023/04/09 01:12:15;;;;;;;20.35;14.45;;;3.60;99.90;;;;;;5054187;28;20035;-52
2023/04/09 01:14:48;;;;;;;18.98;13.95;;;3.70;99.90;;;;;;5054244;28;20025;-52
2023/04/09 01:17:32;;;;;;;20.15;15.10;;;3.70;99.90;;;;;;5054205;28;20103;-52
2023/04/09 01:20:05;;;;;;;;;;;3.60;99.90;;;;;;5054684;28;20032;-51
2023/04/09 01:23:10;;;;;;;18.98;14.50;;;3.60;99.90;;;;;;5054072;28;20000;-55
2023/04/09 01:26:12;;;;;;;20.42;15.00;;;3.60;99.90;;;;;;5054126;28;20028;-52
2023/04/09 01:28:53;;;;;;;19.63;13.98;;;3.60;99.90;;;;;;5054029;28;20437;-55
2023/04/09 01:31:25;;;;;;;21.35;15.40;;;3.60;99.90;;;;;;5053995;28;20090;-56
2023/04/09 01:33:51;;;;;;;21.33;15.30;;;3.60;99.90;;;;;;5053872;28;20021;-51
2023/04/09 01:36:18;;;;;;;18.23;13.38;;;3.70;99.90;;;;;;5053778;28;20025;-56
2023/04/09 01:38:47;;;;;;;24.00;15.50;;;3.80;99.90;;;;;;5052559;28;20415;-55
2023/04/09 01:41:17;;;;;;;19.88;15.38;;;3.70;99.90;;;;;;5053798;28;20025;-55
2023/04/09 01:43:45;;;;;;;18.02;13.38;;;3.70;99.90;;;;;;5053812;28;20033;-58
2023/04/09 01:46:11;;;;;;;17.63;13.38;;;3.70;99.90;;;;;;5053481;28;20017;-56
2023/04/09 01:48:37;;;;;;;18.02;13.80;;;3.70;99.90;;;;;;5053718;28;20025;-51
2023/04/09 01:51:03;;;;;;;17.85;12.70;;;3.70;99.90;;;;;;5053410;28;20036;-55
2023/04/09 01:53:30;;;;;;;17.48;12.88;;;3.60;99.90;;;;;;5053698;28;20029;-52
2023/04/09 01:55:58;;;;;;;18.58;13.77;;;3.60;99.90;;;;;;5053376;28;20535;-53
2023/04/09 01:58:24;;;;;;;17.75;14.57;;;3.60;99.90;;;;;;5053494;28;20021;-51
2023/04/09 02:00:53;;;;;;;18.30;13.90;;;3.60;99.90;;;;;;5053468;28;20427;-57
2023/04/09 02:03:27;;;;;;;21.52;15.13;;;3.60;99.90;;;;;;5051922;28;20025;-52
2023/04/09 02:06:16;;;;;;;19.10;14.82;;;3.50;99.90;;;;;;5053591;28;20020;-52
2023/04/09 02:08:46;;;;;;;21.58;15.65;;;3.50;99.90;;;;;;5053535;28;20025;-54
2023/04/09 02:11:13;;;;;;;24.95;15.52;;;3.50;99.90;;;;;;5053065;28;20491;-56
2023/04/09 02:13:41;;;;;;;18.00;13.77;;;3.50;99.90;;;;;;5053079;28;20158;-53
2023/04/09 02:16:09;;;;;;;19.17;13.88;;;3.50;99.90;;;;;;5053011;28;20021;-56
2023/04/09 02:18:35;;;;;;;19.50;15.25;;;3.50;99.90;;;;;;5053176;28;20024;-55
2023/04/09 02:21:01;;;;;;;19.25;15.40;;;3.50;99.90;;;;;;5053029;28;20025;-56
2023/04/09 02:23:27;;;;;;;20.85;14.82;;;3.40;99.90;;;;;;5053078;28;20025;-55
2023/04/09 02:25:53;;;;;;;23.00;17.65;;;3.40;99.90;;;;;;5053053;28;20416;-53
2023/04/09 02:28:19;;;;;;;21.20;15.30;;;3.40;99.90;;;;;;5052750;28;20025;-58
2023/04/09 02:30:44;;;;;;;21.67;16.20;;;3.40;99.90;;;;;;5052764;28;20117;-58
2023/04/09 02:33:10;;;;;;;21.45;14.80;;;3.40;99.90;;;;;;5052693;28;20029;-57
2023/04/09 02:35:36;;;;;;;20.35;15.05;;;3.40;99.90;;;;;;5052719;28;20029;-56
2023/04/09 02:38:02;;;;;;;18.80;14.48;;;3.30;99.90;;;;;;5052597;28;20028;-59
2023/04/09 02:40:27;;;;;;;16.08;13.30;;;3.40;99.90;;;;;;5052620;28;20031;-59
2023/04/09 02:42:53;;;;;;;18.40;13.95;;;3.50;99.90;;;;;;5052625;28;20033;-53
2023/04/09 02:45:19;;;;;;;17.45;13.82;;;3.60;99.90;;;;;;5051129;28;20025;-53
2023/04/09 02:47:45;;;;;;;21.15;13.95;;;3.50;99.90;;;;;;5052582;28;20057;-56
2023/04/09 02:50:10;;;;;;;19.83;14.48;;;3.50;99.90;;;;;;5051962;28;20033;-54
2023/04/09 02:52:36;;;;;;;23.48;15.35;;;3.50;99.90;;;;;;5052469;28;20021;-55
2023/04/09 02:55:02;;;;;;;20.92;14.60;;;3.50;99.90;;;;;;5052258;28;20462;-55
2023/04/09 02:57:28;;;;;;;23.05;15.57;;;3.50;99.90;;;;;;5052349;28;20052;-55
2023/04/09 02:59:54;;;;;;;21.80;16.10;;;3.50;99.90;;;;;;5052239;28;20055;-56
2023/04/09 03:02:19;;;;;;;22.25;15.50;;;3.40;99.90;;;;;;5052202;28;20021;-56
2023/04/09 03:04:45;;;;;;;22.60;16.15;;;3.40;99.90;;;;;;5050787;28;20021;-53
2023/04/09 03:07:11;;;;;;;20.17;15.65;;;3.40;99.90;;;;;;5052180;28;20025;-58
2023/04/09 03:09:36;;;;;;;20.77;15.85;;;3.40;99.90;;;;;;5052050;28;20515;-57
2023/04/09 03:12:02;;;;;;;23.40;15.80;;;3.40;99.90;;;;;;5052091;28;20476;-57
2023/04/09 03:14:28;;;;;;;19.90;14.73;;;3.40;99.90;;;;;;5051839;28;20041;-52
2023/04/09 03:16:53;;;;;;;20.05;15.25;;;3.40;99.90;;;;;;5052062;28;20163;-56
2023/04/09 03:19:19;;;;;;;18.90;13.98;;;3.50;99.90;;;;;;5052008;28;20060;-55
2023/04/09 03:21:45;;;;;;;19.95;15.30;;;3.50;99.90;;;;;;5051928;28;20032;-55
2023/04/09 03:24:11;;;;;;;19.02;14.85;;;3.50;99.90;;;;;;5051781;28;20029;-54
2023/04/09 03:26:37;;;;;;;21.27;14.38;;;3.50;99.90;;;;;;5052048;28;20047;-56
2023/04/09 03:29:03;;;;;;;18.27;14.82;;;3.60;99.90;;;;;;5051528;28;20029;-51
2023/04/09 03:31:29;;;;;;;16.73;14.02;;;3.70;99.90;;;;;;5051871;28;20029;-53
2023/04/09 03:33:55;;;;;;;20.60;13.55;;;3.70;99.90;;;;;;5051684;28;20028;-54
2023/04/09 03:36:20;;;;;;;19.08;14.45;;;3.70;99.90;;;;;;5051887;28;20064;-56
2023/04/09 03:38:46;;;;;;;22.48;14.60;;;3.60;99.90;;;;;;5051593;28;20026;-51
2023/04/09 03:41:12;;;;;;;21.67;15.60;;;3.60;99.90;;;;;;5051628;28;20044;-51
2023/04/09 03:43:37;;;;;;;17.60;13.63;;;3.60;99.90;;;;;;5050231;28;20025;-49
2023/04/09 03:46:16;;;;;;;20.58;15.02;;;3.70;99.90;;;;;;5051530;28;20025;-52
2023/04/09 03:48:43;;;;;;;23.08;15.73;;;3.70;99.90;;;;;;5051594;28;20059;-51
2023/04/09 03:51:16;;;;;;;22.10;15.80;;;3.60;99.90;;;;;;5051279;28;20415;-54
2023/04/09 03:53:42;;;;;;;22.77;16.55;;;3.60;99.90;;;;;;5051452;28;20037;-54
2023/04/09 03:56:09;;;;;;;26.50;17.38;;;3.60;99.90;;;;;;5049717;28;20063;-53
2023/04/09 03:58:35;;;;;;;24.52;18.05;;;3.50;99.90;;;;;;5051077;28;20059;-57
2023/04/09 04:01:01;;;;;;;30.42;18.90;;;3.40;99.90;;;;;;5051717;28;20025;-55
2023/04/09 04:03:26;;;;;;;24.92;17.92;;;3.40;99.90;;;;;;5055645;28;20433;-56
2023/04/09 04:05:52;;;;;;;24.17;16.95;;;3.30;99.90;;;;;;5055604;28;20021;-51
2023/04/09 04:08:18;;;;;;;22.15;16.48;;;3.40;99.90;;;;;;5055436;28;20089;-52
2023/04/09 04:10:43;;;;;;;25.88;18.10;;;3.40;99.90;;;;;;5055490;28;20040;-54
2023/04/09 04:13:09;;;;;;;24.13;16.42;;;3.40;99.90;;;;;;5055096;28;20045;-54
2023/04/09 04:15:40;;;;;;;27.73;17.90;;;3.40;99.90;;;;;;5055390;28;20162;-54
2023/04/09 04:18:05;;;;;;;23.55;17.55;;;3.50;99.90;;;;;;5055361;28;20028;-53
2023/04/09 04:20:35;;;;;;;26.17;17.65;;;3.50;99.90;;;;;;5055058;28;20024;-51
2023/04/09 04:23:01;;;;;;;23.20;17.38;;;3.50;99.90;;;;;;5054883;28;20029;-55
2023/04/09 04:25:26;;;;;;;24.67;18.52;;;3.50;99.90;;;;;;5054698;28;20029;-54
2023/04/09 04:27:53;;;;;;;22.40;16.10;;;3.50;99.90;;;;;;5054632;28;20025;-55
2023/04/09 04:30:20;;;;;;;25.05;17.55;;;3.60;99.90;;;;;;5054296;28;20013;-53
2023/04/09 04:32:46;;;;;;;24.25;18.05;;;3.60;99.90;;;;;;5054186;28;20017;-55
2023/04/09 04:35:12;;;;;;;25.40;17.63;;;3.50;99.90;;;;;;5054681;28;20017;-54
2023/04/09 04:37:39;;;;;;;26.73;18.08;;;3.50;99.90;;;;;;5053746;28;20021;-53
2023/04/09 04:40:06;;;;;;;25.83;18.30;;;3.50;99.90;;;;;;5054895;28;20021;-56
2023/04/09 04:42:32;;;;;;;21.60;16.67;;;3.50;99.90;;;;;;5054905;28;20032;-55
2023/04/09 04:44:57;;;;;;;21.70;17.05;;;3.60;99.90;;;;;;5054802;28;20108;-55
2023/04/09 04:47:23;;;;;;;28.45;19.35;;;3.50;99.90;;;;;;5054809;28;20083;-51
2023/04/09 04:49:49;;;;;;;25.55;17.20;;;3.50;99.90;;;;;;5054782;28;20064;-53
2023/04/09 04:52:14;;;;;;;26.63;18.80;;;3.60;99.90;;;;;;5054501;28;20056;-52
2023/04/09 04:54:40;;;;;;;27.40;16.73;;;3.60;99.90;;;;;;5054823;28;20059;-55
2023/04/09 04:57:06;;;;;;;23.05;16.48;;;3.70;99.90;;;;;;5054364;28;20036;-53
2023/04/09 04:59:31;;;;;;;21.50;15.15;;;3.70;99.90;;;;;;5054716;28;20104;-52
2023/04/09 05:01:57;;;;;;;21.85;15.88;;;3.70;99.90;;;;;;5054454;28;20112;-57
2023/04/09 05:04:23;;;;;;;23.67;16.70;;;3.70;99.90;;;;;;5054694;28;20025;-53
2023/04/09 05:06:48;;;;;;;24.05;16.83;;;3.60;99.90;;;;;;5054448;28;20029;-55
2023/04/09 05:09:14;;;;;;;23.20;17.30;;;3.60;99.90;;;;;;5054309;28;20459;-55
2023/04/09 05:11:40;;;;;;;25.00;18.13;;;3.50;99.90;;;;;;5054023;28;20017;-54
2023/04/09 05:14:06;;;;;;;24.42;17.83;;;3.50;99.90;;;;;;5052682;28;20051;-55
2023/04/09 05:16:31;;;;;;;26.52;17.67;;;3.50;99.90;;;;;;5054212;28;20021;-50
2023/04/09 05:18:57;;;;;;;26.88;18.25;;;3.50;99.90;;;;;;5052837;28;20033;-54
2023/04/09 05:21:22;;;;;;;27.40;19.02;;;3.60;99.90;;;;;;5054084;28;20384;-56
2023/04/09 05:23:48;;;;;;;24.73;17.27;;;3.70;99.90;;;;;;5054223;28;20094;-51
2023/04/09 05:26:14;;;;;;;28.27;19.52;;;3.70;99.90;;;;;;5053935;28;20029;-56
2023/04/09 05:28:40;;;;;;;25.83;18.58;;;3.80;99.90;;;;;;5053936;28;20025;-52
2023/04/09 05:31:11;;;;;;;27.63;20.38;;;3.70;99.90;;;;;;5053956;28;20017;-49
2023/04/09 05:33:40;;;;;;;29.75;21.15;;;3.80;99.90;;;;;;5053885;28;20021;-55
2023/04/09 05:36:06;;;;;;;29.17;19.83;;;3.80;99.90;;;;;;5053950;28;20661;-50
2023/04/09 05:38:33;;;;;;;26.42;19.40;;;3.80;99.90;;;;;;5053853;28;20044;-50
2023/04/09 05:40:59;;;;;;;25.75;18.95;;;3.80;99.90;;;;;;5053744;28;20029;-55
2023/04/09 05:43:25;;;;;;;25.73;19.15;;;3.80;99.90;;;;;;5053772;28;20470;-54
2023/04/09 05:45:51;;;;;;;26.00;19.02;;;3.80;99.90;;;;;;5053767;28;20400;-56
2023/04/09 05:48:17;;;;;;;30.55;20.65;;;3.80;99.90;;;;;;5053505;28;20037;-48
2023/04/09 05:50:51;;;;;;;28.65;19.48;;;3.70;99.90;;;;;;5053986;28;20175;-55
2023/04/09 05:53:17;;;;;;;29.98;20.67;;;3.70;99.90;;;;;;5053513;28;20025;-54
2023/04/09 05:55:43;;;;;;;25.45;18.58;;;3.80;99.90;;;;;;5053463;28;20091;-52
2023/04/09 05:58:09;;;;;;;29.08;20.73;;;3.80;99.90;;;;;;5053174;28;20052;-53
2023/04/09 06:00:34;;;;;;;27.23;18.73;;;3.90;99.90;;;;;;5053440;28;20051;-55
2023/04/09 06:03:00;;;;;;;27.65;19.13;;;3.80;99.90;;;;;;5053343;28;20594;-51
2023/04/09 06:05:27;;;;;;;32.38;21.73;;;3.80;99.90;;;;;;5053313;28;20021;-53
2023/04/09 06:07:52;;;;;;;32.10;20.45;;;3.90;99.90;;;;;;5053522;28;20021;-54
2023/04/09 06:10:18;;;;;;;28.30;20.75;;;3.90;99.90;;;;;;5052733;28;20035;-54
2023/04/09 06:12:44;;;;;;;29.35;20.65;;;3.90;99.90;;;;;;5052875;28;20029;-54
2023/04/09 06:15:10;;;;;;;36.35;22.40;;;3.90;99.90;;;;;;5052978;28;20021;-51
2023/04/09 06:17:36;;;;;;;30.08;20.35;;;3.80;99.90;;;;;;5051677;28;20477;-54
2023/04/09 06:20:01;;;;;;;29.00;20.35;;;3.90;99.90;;;;;;5053025;28;20034;-53
2023/04/09 06:22:27;;;;;;;29.35;21.75;;;4.00;99.90;;;;;;5051450;28;20025;-54
2023/04/09 06:24:53;;;;;;;28.77;20.17;;;4.00;99.90;;;;;;5051794;28;20120;-55
2023/04/09 06:27:20;;;;;;;27.17;19.73;;;4.00;99.90;;;;;;5052684;28;20111;-54
2023/04/09 06:29:46;;;;;;;28.60;20.33;;;4.20;99.90;;;;;;5052651;28;20086;-54
2023/04/09 06:32:12;;;;;;;27.20;20.05;;;4.20;99.90;;;;;;5052491;28;20025;-56
2023/04/09 06:34:37;;;;;;;25.95;19.60;;;4.30;99.90;;;;;;5052395;28;20028;-52
2023/04/09 06:37:03;;;;;;;27.45;19.30;;;4.30;99.90;;;;;;5050911;28;20434;-54
2023/04/09 06:39:29;;;;;;;31.23;19.60;;;4.40;99.90;;;;;;5052035;28;20074;-54
2023/04/09 06:41:54;;;;;;;26.27;19.58;;;4.30;99.90;;;;;;5052226;28;20107;-56
2023/04/09 06:44:20;;;;;;;24.80;18.48;;;4.40;99.90;;;;;;5051806;28;20032;-53
2023/04/09 06:46:46;;;;;;;28.45;20.00;;;4.40;99.90;;;;;;5052355;28;20021;-55
2023/04/09 06:49:12;;;;;;;22.42;17.48;;;4.50;99.90;;;;;;5052302;28;20049;-52
2023/04/09 06:51:37;;;;;;;28.05;20.55;;;4.50;99.90;;;;;;5052438;28;20017;-57
2023/04/09 06:54:03;;;;;;;25.50;20.33;;;4.50;99.90;;;;;;5052887;28;20388;-55
2023/04/09 06:56:29;;;;;;;25.77;18.55;;;4.50;99.90;;;;;;5052211;28;20700;-53
2023/04/09 06:59:13;;;;;;;27.80;20.25;;;4.60;99.90;;;;;;5052101;28;20021;-57
2023/04/09 07:01:39;;;;;;;;;;;4.60;99.90;;;;;;5052621;28;20456;-58
2023/04/09 07:04:05;;;;;;;26.08;18.70;;;4.70;99.90;;;;;;5050761;28;19912;-57
2023/04/09 07:06:31;;;;;;;28.50;20.83;;;4.70;99.90;;;;;;5051941;28;20017;-56
2023/04/09 07:08:56;;;;;;;24.85;18.08;;;4.80;99.90;;;;;;5052230;28;20017;-57
2023/04/09 07:11:22;;;;;;;25.60;19.85;;;4.90;99.90;;;;;;5052003;28;20113;-57
2023/04/09 07:13:48;;;;;;;28.08;20.60;;;4.90;99.90;;;;;;5051902;28;20459;-51
2023/04/09 07:16:13;;;;;;;28.02;19.27;;;4.90;99.90;;;;;;5051880;28;20028;-53
2023/04/09 07:18:39;;;;;;;27.48;20.02;;;5.00;99.90;;;;;;5051366;28;20070;-56
2023/04/09 07:21:05;;;;;;;27.13;19.85;;;5.00;99.90;;;;;;5051084;28;20116;-54
2023/04/09 07:23:35;;;;;;;28.10;21.50;;;5.00;99.90;;;;;;5051376;28;20029;-54
2023/04/09 07:26:04;;;;;;;26.75;20.30;;;4.90;99.90;;;;;;5051009;28;20380;-57
2023/04/09 07:28:30;;;;;;;27.58;20.25;;;4.90;99.90;;;;;;5051538;28;20025;-52
2023/04/09 07:30:56;;;;;;;28.98;22.17;;;5.00;99.90;;;;;;5051149;28;20025;-55
2023/04/09 07:33:22;;;;;;;29.27;21.05;;;4.90;99.90;;;;;;5050787;28;20071;-55
2023/04/09 07:35:48;;;;;;;31.23;20.75;;;4.90;99.90;;;;;;5050485;28;20107;-58
2023/04/09 07:38:13;;;;;;;29.13;20.48;;;5.00;99.90;;;;;;5051148;28;20056;-57
2023/04/09 07:40:39;;;;;;;27.85;20.13;;;5.00;99.90;;;;;;5051838;28;20107;-57
2023/04/09 07:43:05;;;;;;;29.55;20.65;;;5.10;99.90;;;;;;5051422;28;20033;-53
2023/04/09 07:45:30;;;;;;;27.38;19.73;;;5.20;99.90;;;;;;5051662;28;20029;-56
2023/04/09 07:47:56;;;;;;;24.92;19.20;;;5.20;99.90;;;;;;5051563;28;20104;-55
2023/04/09 07:50:22;;;;;;;25.67;19.88;;;5.20;99.90;;;;;;5050268;28;20029;-53
2023/04/09 07:52:48;;;;;;;27.10;20.83;;;5.10;99.90;;;;;;5051424;28;20075;-56
2023/04/09 07:55:13;;;;;;;42.90;25.40;;;5.10;99.90;;;;;;5051275;28;20045;-56
2023/04/09 07:57:39;;;;;;;31.20;21.67;;;5.20;99.90;;;;;;5051473;28;20021;-56
2023/04/09 08:00:05;;;;;;;26.83;19.65;;;5.20;99.90;;;;;;5051329;28;20407;-54
2023/04/09 08:02:31;;;;;;;25.35;19.25;;;5.30;99.90;;;;;;5051440;28;20357;-54
2023/04/09 08:04:57;;;;;;;30.40;22.88;;;5.40;99.90;;;;;;5051078;28;20035;-56
2023/04/09 08:07:23;;;;;;;28.50;21.48;;;5.40;99.90;;;;;;5050876;28;20028;-58
2023/04/09 08:09:49;;;;;;;26.98;20.40;;;5.30;99.90;;;;;;5051138;28;20021;-58
2023/04/09 08:12:15;;;;;;;28.77;20.95;;;5.30;99.90;;;;;;5051235;28;20508;-58
2023/04/09 08:14:40;;;;;;;23.38;19.15;;;5.40;99.90;;;;;;5051279;28;20555;-56
2023/04/09 08:17:24;;;;;;;25.73;18.85;;;5.30;99.90;;;;;;5051205;28;20104;-57
2023/04/09 08:19:50;;;;;;;24.10;19.40;;;5.20;99.90;;;;;;5051239;28;20143;-58
2023/04/09 08:22:15;;;;;;;29.23;23.02;;;5.30;99.90;;;;;;5050599;28;20523;-56
2023/04/09 08:24:42;;;;;;;24.73;19.27;;;5.40;99.90;;;;;;5050739;28;20029;-57
2023/04/09 08:27:08;;;;;;;22.73;18.02;;;5.30;99.90;;;;;;5050614;28;20108;-57
2023/04/09 08:29:34;;;;;;;22.42;18.42;;;5.30;99.90;;;;;;5050569;28;20553;-54
2023/04/09 08:32:00;;;;;;;39.95;33.90;;;5.30;99.90;;;;;;5050540;28;20078;-54
2023/04/09 08:34:26;;;;;;;27.60;21.58;;;5.30;99.90;;;;;;5050667;28;20025;-54
2023/04/09 08:36:51;;;;;;;24.27;19.02;;;5.30;99.90;;;;;;5051133;28;20017;-56
2023/04/09 08:39:18;;;;;;;23.70;18.40;;;5.40;99.90;;;;;;5051092;28;20013;-58
2023/04/09 08:41:45;;;;;;;22.63;19.33;;;5.50;99.90;;;;;;5049751;28;20025;-55
2023/04/09 08:44:10;;;;;;;25.38;17.80;;;5.80;99.90;;;;;;5051000;28;20029;-57
2023/04/09 08:46:36;;;;;;;24.88;18.85;;;5.80;99.90;;;;;;5051430;28;20388;-57
2023/04/09 08:49:02;;;;;;;23.65;19.27;;;5.70;99.90;;;;;;5054728;28;20415;-55
2023/04/09 08:51:28;;;;;;;24.27;18.67;;;5.80;99.90;;;;;;5054731;28;20029;-53
2023/04/09 08:53:58;;;;;;;25.63;19.83;;;5.90;99.90;;;;;;5054742;28;20095;-58
2023/04/09 08:56:25;;;;;;;26.00;18.92;;;5.90;99.90;;;;;;5054801;28;20392;-54
2023/04/09 08:58:52;;;;;;;29.73;19.77;;;5.90;99.90;;;;;;5054679;28;20024;-58
2023/04/09 09:01:35;;;;;;;23.17;17.45;;;5.90;99.90;;;;;;5053711;28;20044;-58
2023/04/09 09:04:05;;;;;;;;;;;6.00;99.90;;;;;;5054908;28;20025;-58
2023/04/09 09:06:40;;;;;;;27.08;18.40;;;5.90;99.90;;;;;;5054441;28;19905;-57
2023/04/09 09:09:10;;;;;;;23.45;17.75;;;6.10;99.90;;;;;;5054049;28;20028;-58
2023/04/09 09:11:38;;;;;;;26.98;18.75;;;6.20;99.90;;;;;;5054413;28;20039;-57
2023/04/09 09:14:09;;;;;;;22.40;18.20;;;6.20;99.90;;;;;;5054074;28;20369;-53
2023/04/09 09:16:39;;;;;;;24.80;17.83;;;6.30;99.90;;;;;;5054499;28;20088;-58
2023/04/09 09:19:06;;;;;;;23.80;18.42;;;6.40;99.90;;;;;;5053882;28;20017;-58
2023/04/09 09:21:32;;;;;;;26.27;19.13;;;6.50;99.90;;;;;;5054126;28;20044;-55
2023/04/09 09:23:57;;;;;;;23.83;16.98;;;6.60;99.90;;;;;;5053682;28;20115;-57
2023/04/09 09:26:27;;;;;;;24.65;19.05;;;6.40;99.90;;;;;;5053252;28;20104;-55
2023/04/09 09:28:53;;;;;;;23.23;18.73;;;6.20;99.90;;;;;;5053977;28;20061;-56
2023/04/09 09:31:20;;;;;;;28.80;20.55;;;6.20;99.90;;;;;;5053624;28;20029;-53
2023/04/09 09:33:47;;;;;;;23.52;17.85;;;6.40;99.90;;;;;;5053706;28;20017;-57
2023/04/09 09:36:14;;;;;;;22.45;17.35;;;6.60;99.90;;;;;;5053764;28;20074;-55
2023/04/09 09:38:57;;;;;;;27.38;18.27;;;6.60;99.90;;;;;;5053494;28;20028;-58
2023/04/09 09:41:23;;;;;;;27.67;19.63;;;6.60;99.90;;;;;;5053597;28;20387;-58
2023/04/09 09:43:50;;;;;;;31.58;21.33;;;6.50;99.90;;;;;;5053049;28;20025;-55
2023/04/09 09:46:16;;;;;;;26.27;19.60;;;6.50;99.90;;;;;;5053614;28;20021;-57
2023/04/09 09:48:45;;;;;;;24.17;18.63;;;6.60;99.90;;;;;;5052251;28;20082;-54
2023/04/09 09:51:12;;;;;;;25.42;18.83;;;6.40;99.90;;;;;;5052936;28;20021;-58
2023/04/09 09:53:40;;;;;;;26.30;21.00;;;6.30;99.90;;;;;;5052984;28;20056;-57
2023/04/09 09:56:10;;;;;;;27.15;20.27;;;6.40;99.90;;;;;;5053006;28;20043;-57
2023/04/09 09:58:40;;;;;;;1999.90;902.83;;;6.50;99.90;;;;;;5051850;28;20484;-53
2023/04/09 10:01:12;;;;;;;636.97;347.40;;;6.30;99.90;;;;;;5052373;28;20491;-58
2023/04/09 10:03:39;;;;;;;63.45;42.90;;;6.20;99.90;;;;;;5052546;28;20102;-57
2023/04/09 10:06:06;;;;;;;29.70;22.17;;;6.20;99.90;;;;;;5052383;28;20068;-57
2023/04/09 10:08:33;;;;;;;34.75;25.98;;;6.20;99.90;;;;;;5052521;28;20032;-58
2023/04/09 10:11:04;;;;;;;105.45;66.03;;;6.30;99.90;;;;;;5052393;28;20029;-56
2023/04/09 10:13:34;;;;;;;100.45;64.45;;;6.10;99.90;;;;;;5053016;28;20511;-58
2023/04/09 10:16:01;;;;;;;148.60;87.47;;;5.90;99.90;;;;;;5052315;28;20094;-58
2023/04/09 10:18:28;;;;;;;178.95;114.43;;;5.70;99.90;;;;;;5051501;28;20029;-59
2023/04/09 10:20:57;;;;;;;237.65;150.50;;;5.60;99.90;;;;;;5052428;28;20045;-56
2023/04/09 10:23:40;;;;;;;367.15;226.55;;;5.60;99.90;;;;;;5053018;28;20025;-57
2023/04/09 10:26:06;;;;;;;191.73;106.80;;;5.60;99.90;;;;;;5052822;28;20039;-58
2023/04/09 10:28:32;;;;;;;175.77;99.43;;;5.70;99.90;;;;;;5052552;28;20036;-58
2023/04/09 10:30:58;;;;;;;91.10;51.22;;;5.60;99.90;;;;;;5052443;28;20375;-57
2023/04/09 10:33:26;;;;;;;36.10;24.60;;;5.70;99.90;;;;;;5052886;28;20519;-55
2023/04/09 10:35:53;;;;;;;25.98;19.30;;;5.70;99.90;;;;;;5052420;28;20543;-55
2023/04/09 10:38:39;;;;;;;26.25;19.98;;;5.70;99.90;;;;;;5052473;28;20103;-55
2023/04/09 10:41:28;;;;;;;25.00;18.63;;;5.70;99.90;;;;;;5052522;28;20031;-57
2023/04/09 10:43:55;;;;;;;25.90;20.30;;;5.70;99.90;;;;;;5052418;28;20028;-57
2023/04/09 10:46:34;;;;;;;24.70;19.58;;;5.60;99.90;;;;;;5051492;28;20055;-57
2023/04/09 10:49:17;;;;;;;25.55;20.05;;;5.70;99.90;;;;;;5052563;28;20029;-58
2023/04/09 10:52:09;;;;;;;31.27;20.50;;;5.60;99.90;;;;;;5051913;28;20145;-57
2023/04/09 10:54:42;;;;;;;25.38;18.48;;;5.60;99.90;;;;;;5052555;28;20351;-58
2023/04/09 10:57:16;;;;;;;30.43;20.47;;;5.50;99.90;;;;;;5052236;28;20013;-56
2023/04/09 10:59:53;;;;;;;25.50;19.05;;;5.50;99.90;;;;;;5052251;28;20025;-52
2023/04/09 11:02:37;;;;;;;25.67;19.17;;;5.50;99.90;;;;;;5051506;28;20045;-55
2023/04/09 11:05:02;;;;;;;;;;;5.50;99.90;;;;;;5052397;28;20116;-52
2023/04/09 11:07:31;;;;;;;24.13;17.58;;;5.60;99.90;;;;;;5052304;28;19984;-56
2023/04/09 11:09:57;;;;;;;23.20;17.38;;;5.60;99.90;;;;;;5056998;28;20063;-58
2023/04/09 11:12:23;;;;;;;21.38;16.73;;;5.70;99.90;;;;;;5071745;28;20394;-54
2023/04/09 11:14:48;;;;;;;23.30;17.38;;;5.60;99.90;;;;;;5058125;28;20039;-57
2023/04/09 11:17:14;;;;;;;28.30;19.42;;;5.70;99.90;;;;;;5051850;28;20021;-54
2023/04/09 11:19:40;;;;;;;22.00;18.00;;;5.70;99.90;;;;;;5052029;28;20024;-57
2023/04/09 11:22:05;;;;;;;23.00;18.08;;;5.70;99.90;;;;;;5051788;28;20033;-58
2023/04/09 11:24:45;;;;;;;21.40;16.38;;;5.70;99.90;;;;;;5050474;28;20028;-56
2023/04/09 11:27:11;;;;;;;22.25;17.23;;;5.60;99.90;;;;;;5051526;28;20524;-58
2023/04/09 11:29:37;;;;;;;22.77;18.00;;;5.60;99.90;;;;;;5051745;28;20086;-54
2023/04/09 11:32:04;;;;;;;39.08;28.67;;;5.60;99.90;;;;;;5051712;28;20029;-57
2023/04/09 11:34:30;;;;;;;26.85;18.45;;;5.50;99.90;;;;;;5051542;28;20021;-56
2023/04/09 11:36:57;;;;;;;20.63;15.98;;;5.60;99.90;;;;;;5051352;28;20025;-58
2023/04/09 11:39:25;;;;;;;21.80;16.67;;;5.70;99.90;;;;;;5051551;28;20017;-57
2023/04/09 11:41:50;;;;;;;20.98;15.02;;;5.70;99.90;;;;;;5070376;28;20375;-55
2023/04/09 11:44:16;;;;;;;18.05;15.27;;;5.80;99.90;;;;;;5071505;28;20020;-58
2023/04/09 11:46:42;;;;;;;19.02;14.82;;;5.90;99.90;;;;;;5071451;28;20028;-58
2023/04/09 11:49:08;;;;;;;18.77;14.43;;;6.00;99.90;;;;;;5071614;28;20028;-57
2023/04/09 11:51:34;;;;;;;17.23;14.32;;;6.10;99.90;;;;;;5071646;28;20104;-58
2023/04/09 11:54:11;;;;;;;18.05;13.48;;;6.10;99.90;;;;;;5071789;28;20139;-56
2023/04/09 11:57:17;;;;;;;16.00;13.63;;;6.20;99.90;;;;;;5071068;28;20033;-56
2023/04/09 11:59:43;;;;;;;17.77;13.32;;;6.30;99.90;;;;;;5026386;28;20049;-54
2023/04/09 12:02:09;;;;;;;16.95;13.80;;;6.40;99.90;;;;;;5021357;28;20037;-56
2023/04/09 12:04:34;;;;;;;17.33;13.73;;;6.50;99.90;;;;;;5032082;28;20083;-55
2023/04/09 12:07:00;;;;;;;18.15;14.50;;;6.90;99.90;;;;;;5022248;28;20057;-55
2023/04/09 12:09:26;;;;;;;17.38;12.88;;;7.10;99.90;;;;;;5020914;28;20033;-55
2023/04/09 12:11:52;;;;;;;18.42;12.95;;;7.60;99.90;;;;;;5021269;28;20080;-55
2023/04/09 12:14:20;;;;;;;15.88;11.75;;;7.90;99.90;;;;;;5020087;28;20053;-57
2023/04/09 12:16:50;;;;;;;14.75;12.60;;;7.70;99.90;;;;;;5034389;28;20022;-52
2023/04/09 12:19:16;;;;;;;17.23;13.52;;;7.50;99.90;;;;;;5032817;28;20049;-58
2023/04/09 12:21:55;;;;;;;13.27;11.00;;;7.60;99.90;;;;;;5021751;28;20033;-58
2023/04/09 12:24:26;;;;;;;15.18;12.48;;;7.70;99.90;;;;;;5024220;28;20098;-48
2023/04/09 12:26:52;;;;;;;14.15;12.48;;;7.70;99.90;;;;;;5036748;28;20030;-56
2023/04/09 12:29:19;;;;;;;15.82;11.88;;;7.40;99.90;;;;;;5023864;28;20033;-58
2023/04/09 12:31:45;;;;;;;15.25;12.00;;;7.30;99.90;;;;;;5029505;28;20039;-55
2023/04/09 12:34:12;;;;;;;14.85;11.85;;;7.20;99.90;;;;;;5023572;28;20121;-57
2023/04/09 12:36:40;;;;;;;14.25;12.73;;;7.10;99.90;;;;;;5024193;28;20095;-55
2023/04/09 12:39:09;;;;;;;19.17;12.75;;;7.00;99.90;;;;;;5024636;28;20476;-55
2023/04/09 12:41:35;;;;;;;15.57;12.70;;;6.90;99.90;;;;;;5043804;28;20560;-57